• Join FlightAware (Why Join?)
  • Login
  • US Flag 
02:25AM EST


 

Airport Tracker/Info


-or-


 

Live Flight TrackerFlight Track Log ✈ LBQ792 ✈ 09-May-2013 ✈ KRDG - KELM

Flight Track Log - Related Links

Times and Time Zones

All times are in EDT time to prevent confusion due to time zone crossing. See the LBQ792 flight status page for this flight to view local times or setup timezone preferences in your user account.

Time Position Orientation Groundspeed Altitude Reporting Facility
EDT Latitude Longitude Course Direction KTS MPH feet Rate Location/Type
08:29PM 40.4442 -76.1761 346° North 172 198 5,500  Level New York Center
08:30PM 40.4581 -76.2347 287° West 172 198 6,700 1,140 Climbing New York Center
08:31PM 40.4800 -76.3019 293° West 185 213 7,900 1,140 Climbing New York Center
08:32PM 40.5167 -76.4374 270° West  Level FlightAware Approximate
08:32PM 40.5292 -76.3167 347° North 164 189 9,000  Level New York Center
08:33PM 40.5363 -76.5284 288° West  Level FlightAware Approximate
08:33PM 40.5789 -76.3261 352° North 170 196 10,000  Level New York Center
08:34PM 40.5775 -76.5925 346° North  Level FlightAware Approximate
08:34PM 40.6283 -76.3383 349° North 181 208 10,800  Level New York Center
08:35PM 40.6797 -76.3536 347° North 181 208 11,500 600 Climbing New York Center
08:36PM 40.7331 -76.3717 346° North 191 220 12,000 240 Climbing New York Center
08:37PM 40.7925 -76.3903 347° North 207 238 12,000  Level New York Center
08:38PM 40.8539 -76.4144 343° North 221 254 12,000  Level New York Center
08:39PM 40.9153 -76.4361 345° North 221 254 12,000  Level New York Center
08:40PM 40.9750 -76.4547 347° North 221 254 12,000  Level New York Center
08:41PM 41.0303 -76.4758 344° North 221 254 12,000  Level New York Center
08:42PM 41.0914 -76.5031 341° North 221 254 12,000  Level New York Center
08:43PM 41.1589 -76.5281 344° North 221 254 12,000  Level New York Center
08:44PM 41.2203 -76.5497 345° North 221 254 12,000  Level New York Center
08:45PM 41.2797 -76.5742 343° North 221 254 12,000  Level New York Center
08:46PM 41.3347 -76.5956 344° North 221 254 12,000  Level New York Center
08:47PM 41.3961 -76.6175 345° North 221 254 12,000  Level New York Center
08:48PM 41.4617 -76.6397 346° North 221 254 12,000  Level New York Center
08:49PM 41.5228 -76.6672 341° North 221 254 12,000  Level New York Center
08:50PM 41.5822 -76.6864 346° North 221 254 12,000 -60 Level New York Center
08:51PM 41.6436 -76.7111 343° North 221 254 11,900 -660 Descending New York Center
08:52PM 41.7072 -76.7308 347° North 221 254 10,700 -1,200 Descending New York Center
08:53PM 41.7728 -76.7506 347° North 221 254 9,600 -1,140 Descending New York Center
08:54PM 41.8364 -76.7703 347° North 226 260 8,500 -1,200 Descending New York Center
08:55PM 41.9044 -76.7819 353° North 237 273 7,300 -1,320 Descending New York Center
08:56PM 41.9725 -76.7964 351° North 242 278 5,900 -1,200 Descending New York Center
08:57PM 42.0342 -76.8106 350° North 247 284 5,000 -600 Descending New York Center
08:58PM 42.0981 -76.8247 351° North 247 284 4,800 -900 Descending New York Center
08:59PM 42.1511 -76.8492 341° North 224 258 3,300 -1,500 Descending New York Center
09:00PM 42.1911 -76.8781 332° Northwest 200 230 1,900 2,820 Descending New York Center
09:01PM 42.2419 -76.9022 341° North 200 230 9,000 3,480 Climbing New York Center
09:02PM 42.2925 -76.9294 338° Northwest 200 230 9,000  Level New York Center
09:03PM 42.3433 -76.9539 340° North 200 230 9,000  Level New York Center
09:04PM 42.3533 -76.9606 334° Northwest 200 230 9,000  Level New York Center